Time;durP1;ratioP1;P1;durP2;ratioP2;P2;SDS_P1;SDS_P2;PMS_P1;PMS_P2;Temp;Humidity;BMP_temperature;BMP_pressure;BME280_temperature;BME280_humidity;BME280_pressure;Samples;Min_cycle;Max_cycle;Signal;HPM_P1;HPM_P2
2023/05/06 00:00:13;;;;;;;9.82;7.38;;;;;;;;;;5039258;28;20223;-69
2023/05/06 00:02:38;;;;;;;8.98;6.93;;;;;;;;;;5046855;28;20297;-70
2023/05/06 00:05:04;;;;;;;9.38;5.95;;;;;;;;;;5034843;28;20261;-69
2023/05/06 00:07:30;;;;;;;7.80;6.00;;;;;;;;;;5038747;28;20227;-69
2023/05/06 00:09:55;;;;;;;7.65;6.07;;;;;;;;;;5029299;28;20403;-69
2023/05/06 00:12:21;;;;;;;6.90;4.75;;;;;;;;;;5043498;28;20226;-71
2023/05/06 00:14:46;;;;;;;6.75;5.53;;;;;;;;;;5031909;28;20181;-70
2023/05/06 00:17:11;;;;;;;9.13;6.22;;;;;;;;;;5037252;28;20193;-70
2023/05/06 00:19:37;;;;;;;6.72;5.53;;;;;;;;;;5036113;28;20213;-69
2023/05/06 00:22:03;;;;;;;7.13;5.60;;;;;;;;;;5045996;28;20209;-70
2023/05/06 00:24:28;;;;;;;5.30;4.63;;;;;;;;;;5045771;28;20216;-69
2023/05/06 00:26:53;;;;;;;11.63;4.35;;;;;;;;;;5038238;28;20178;-69
2023/05/06 00:29:19;;;;;;;10.98;4.70;;;;;;;;;;5028802;28;20669;-70
2023/05/06 00:31:44;;;;;;;5.68;4.00;;;;;;;;;;5044705;28;20185;-70
2023/05/06 00:34:10;;;;;;;85.05;6.47;;;;;;;;;;5040222;28;20251;-71
2023/05/06 00:36:36;;;;;;;26.80;4.97;;;;;;;;;;5040423;28;20204;-70
2023/05/06 00:39:02;;;;;;;19.08;5.10;;;;;;;;;;5034463;28;20225;-70
2023/05/06 00:41:32;;;;;;;26.50;4.95;;;;;;;;;;5033971;28;20221;-70
2023/05/06 00:43:57;;;;;;;4.82;3.88;;;;;;;;;;5045826;28;20177;-70
2023/05/06 00:46:23;;;;;;;12.50;2.90;;;;;;;;;;5055754;28;20776;-70
2023/05/06 00:48:48;;;;;;;4.40;2.92;;;;;;;;;;5031761;28;20194;-70
2023/05/06 00:51:14;;;;;;;4.82;2.60;;;;;;;;;;5044527;28;20540;-70
2023/05/06 00:53:39;;;;;;;3.47;3.00;;;;;;;;;;5045976;28;20196;-70
2023/05/06 00:56:05;;;;;;;4.50;2.28;;;;;;;;;;5036640;28;20688;-69
2023/05/06 00:58:31;;;;;;;7.20;2.67;;;;;;;;;;5038080;28;20219;-69
2023/05/06 01:00:57;;;;;;;3.33;2.40;;;;;;;;;;5026762;28;20217;-69
2023/05/06 01:03:22;;;;;;;5.15;2.58;;;;;;;;;;5028523;28;20327;-69
2023/05/06 01:06:17;;;;;;;51.00;3.72;;;;;;;;;;5039783;28;20285;-70
2023/05/06 01:08:53;;;;;;;9.35;2.90;;;;;;;;;;5043703;28;20193;-70
2023/05/06 01:11:37;;;;;;;3.05;2.75;;;;;;;;;;5034485;28;20276;-70
2023/05/06 01:14:13;;;;;;;3.05;2.67;;;;;;;;;;5050206;28;20496;-70
2023/05/06 01:16:40;;;;;;;3.92;2.58;;;;;;;;;;5049164;28;20220;-70
2023/05/06 01:19:12;;;;;;;4.10;3.10;;;;;;;;;;5047269;28;20182;-69
2023/05/06 01:21:40;;;;;;;4.13;2.80;;;;;;;;;;5042821;28;20221;-69
2023/05/06 01:24:05;;;;;;;3.88;2.97;;;;;;;;;;5037584;28;20499;-69
2023/05/06 01:26:31;;;;;;;4.00;3.30;;;;;;;;;;5044816;28;20190;-70
2023/05/06 01:28:57;;;;;;;4.97;3.22;;;;;;;;;;5040732;28;20265;-69
2023/05/06 01:31:46;;;;;;;4.68;3.20;;;;;;;;;;5049265;28;20308;-69
2023/05/06 01:34:18;;;;;;;4.85;3.28;;;;;;;;;;5047054;28;20193;-69
2023/05/06 01:37:00;;;;;;;5.32;4.10;;;;;;;;;;5037467;28;20206;-71
2023/05/06 01:39:28;;;;;;;8.48;4.43;;;;;;;;;;5046416;28;20292;-70
2023/05/06 01:41:56;;;;;;;24.63;4.90;;;;;;;;;;5033868;28;20224;-70
2023/05/06 01:44:22;;;;;;;11.13;5.20;;;;;;;;;;5052843;28;20718;-71
2023/05/06 01:46:50;;;;;;;19.50;5.60;;;;;;;;;;5048153;28;20213;-70
2023/05/06 01:49:15;;;;;;;11.52;5.00;;;;;;;;;;5039667;28;20528;-70
2023/05/06 01:51:46;;;;;;;5.95;4.03;;;;;;;;;;5043679;28;20478;-70
2023/05/06 01:54:12;;;;;;;5.03;3.97;;;;;;;;;;5045314;28;20602;-70
2023/05/06 01:56:37;;;;;;;7.80;4.20;;;;;;;;;;5048446;28;20293;-70
2023/05/06 01:59:03;;;;;;;6.03;4.05;;;;;;;;;;5041447;28;20256;-70
2023/05/06 02:01:28;;;;;;;4.03;3.58;;;;;;;;;;5039918;28;20259;-70
2023/05/06 02:03:53;;;;;;;4.38;3.75;;;;;;;;;;5047173;28;20639;-70
2023/05/06 02:06:19;;;;;;;6.30;4.03;;;;;;;;;;5048785;28;20268;-70
2023/05/06 02:08:44;;;;;;;5.15;4.43;;;;;;;;;;5043977;28;20202;-70
2023/05/06 02:11:09;;;;;;;3.92;3.55;;;;;;;;;;5048763;28;20298;-70
2023/05/06 02:13:35;;;;;;;5.60;4.00;;;;;;;;;;5047050;28;20193;-70
2023/05/06 02:16:01;;;;;;;4.10;3.70;;;;;;;;;;5033414;28;20213;-70
2023/05/06 02:18:26;;;;;;;7.65;4.95;;;;;;;;;;5048242;28;20193;-70
2023/05/06 02:20:51;;;;;;;6.05;5.30;;;;;;;;;;5043970;28;20453;-70
2023/05/06 02:23:17;;;;;;;8.82;5.93;;;;;;;;;;5042212;28;20670;-70
2023/05/06 02:25:42;;;;;;;8.48;5.93;;;;;;;;;;5047631;28;20196;-70
2023/05/06 02:28:08;;;;;;;9.45;6.45;;;;;;;;;;5047737;28;20573;-70
2023/05/06 02:30:34;;;;;;;12.82;7.65;;;;;;;;;;5048802;28;20189;-70
2023/05/06 02:32:59;;;;;;;12.50;8.10;;;;;;;;;;5037300;28;20239;-70
2023/05/06 02:35:25;;;;;;;11.07;7.35;;;;;;;;;;5047866;28;20294;-70
2023/05/06 02:37:50;;;;;;;12.48;6.55;;;;;;;;;;5046533;28;20177;-69
2023/05/06 02:40:16;;;;;;;15.68;6.50;;;;;;;;;;5027011;28;20194;-69
2023/05/06 02:42:41;;;;;;;21.58;6.40;;;;;;;;;;5044849;28;20279;-71
2023/05/06 02:45:07;;;;;;;10.77;4.85;;;;;;;;;;5045708;28;20280;-70
2023/05/06 02:47:32;;;;;;;12.15;4.40;;;;;;;;;;5028102;28;20676;-71
2023/05/06 02:49:58;;;;;;;6.63;3.95;;;;;;;;;;5051197;28;20698;-69
2023/05/06 02:52:23;;;;;;;10.75;4.68;;;;;;;;;;5046937;28;20269;-70
2023/05/06 02:54:49;;;;;;;11.48;5.40;;;;;;;;;;5033371;28;20697;-68
2023/05/06 02:57:14;;;;;;;10.70;6.03;;;;;;;;;;5047764;28;20304;-69
2023/05/06 02:59:40;;;;;;;10.02;5.97;;;;;;;;;;5047214;28;20582;-69
2023/05/06 03:02:05;;;;;;;31.38;5.30;;;;;;;;;;5031471;28;20213;-70
2023/05/06 03:04:30;;;;;;;13.63;5.43;;;;;;;;;;5042387;28;20357;-70
2023/05/06 03:06:56;;;;;;;18.35;5.28;;;;;;;;;;5043514;28;20190;-70
2023/05/06 03:09:21;;;;;;;17.23;5.22;;;;;;;;;;5046195;28;20231;-71
2023/05/06 03:11:47;;;;;;;11.43;5.22;;;;;;;;;;5044294;28;20213;-68
2023/05/06 03:14:13;;;;;;;17.20;6.55;;;;;;;;;;5031828;28;20182;-69
2023/05/06 03:16:38;;;;;;;18.30;7.35;;;;;;;;;;5041215;28;20362;-70
2023/05/06 03:19:04;;;;;;;15.27;7.78;;;;;;;;;;5037002;28;20182;-71
2023/05/06 03:21:30;;;;;;;11.68;7.88;;;;;;;;;;5045848;28;20189;-70
2023/05/06 03:23:56;;;;;;;11.55;6.82;;;;;;;;;;5046841;28;20268;-71
2023/05/06 03:26:21;;;;;;;11.77;6.82;;;;;;;;;;5040940;28;20669;-71
2023/05/06 03:28:46;;;;;;;8.07;5.65;;;;;;;;;;5037133;28;20268;-71
2023/05/06 03:31:12;;;;;;;11.13;7.47;;;;;;;;;;5044939;28;20208;-71
2023/05/06 03:33:37;;;;;;;12.60;8.25;;;;;;;;;;5041770;28;20258;-70
2023/05/06 03:36:03;;;;;;;12.45;8.40;;;;;;;;;;5045665;28;20315;-70
2023/05/06 03:38:28;;;;;;;13.45;8.50;;;;;;;;;;5044003;28;20215;-70
2023/05/06 03:40:54;;;;;;;12.38;9.13;;;;;;;;;;5036456;28;20213;-70
2023/05/06 03:43:19;;;;;;;11.95;9.32;;;;;;;;;;5041724;28;20648;-70
2023/05/06 03:45:45;;;;;;;14.20;9.93;;;;;;;;;;5053161;28;20220;-70
2023/05/06 03:48:10;;;;;;;13.50;8.85;;;;;;;;;;5035030;28;20293;-70
2023/05/06 03:50:36;;;;;;;13.35;8.98;;;;;;;;;;5046264;28;20680;-70
2023/05/06 03:53:01;;;;;;;14.50;8.95;;;;;;;;;;5044578;28;20181;-70
2023/05/06 03:55:26;;;;;;;13.20;8.73;;;;;;;;;;5042619;28;20315;-70
2023/05/06 03:57:52;;;;;;;14.15;7.53;;;;;;;;;;5035709;28;20212;-70
2023/05/06 04:00:17;;;;;;;9.90;6.95;;;;;;;;;;5043104;28;20436;-70
2023/05/06 04:02:43;;;;;;;10.43;7.30;;;;;;;;;;5041714;28;20181;-70
2023/05/06 04:05:08;;;;;;;13.10;6.57;;;;;;;;;;5044107;28;20247;-70
2023/05/06 04:07:34;;;;;;;11.45;6.50;;;;;;;;;;5041859;28;20197;-70
2023/05/06 04:09:59;;;;;;;20.33;6.18;;;;;;;;;;5047530;28;20514;-70
2023/05/06 04:12:24;;;;;;;19.83;6.13;;;;;;;;;;5027912;28;20280;-70
2023/05/06 04:14:50;;;;;;;47.42;7.45;;;;;;;;;;5040727;28;20613;-69
2023/05/06 04:17:15;;;;;;;19.27;6.93;;;;;;;;;;5045172;28;20699;-71
2023/05/06 04:19:41;;;;;;;37.65;7.75;;;;;;;;;;5038417;28;20203;-70
2023/05/06 04:22:06;;;;;;;33.97;7.07;;;;;;;;;;5046496;28;20197;-70
2023/05/06 04:24:32;;;;;;;57.50;8.32;;;;;;;;;;5045576;28;20205;-70
2023/05/06 04:26:58;;;;;;;33.58;7.57;;;;;;;;;;5034268;28;20779;-70
2023/05/06 04:29:24;;;;;;;65.57;9.20;;;;;;;;;;5041282;28;20193;-70
2023/05/06 04:31:50;;;;;;;45.53;8.77;;;;;;;;;;5046327;28;20633;-70
2023/05/06 04:34:16;;;;;;;67.95;10.18;;;;;;;;;;5034605;28;20189;-70
2023/05/06 04:36:42;;;;;;;61.15;9.35;;;;;;;;;;5048422;28;20197;-70
2023/05/06 04:39:09;;;;;;;44.95;9.50;;;;;;;;;;5041640;28;20201;-70
2023/05/06 04:41:35;;;;;;;62.90;9.57;;;;;;;;;;5044685;28;20201;-70
2023/05/06 04:44:00;;;;;;;76.50;10.85;;;;;;;;;;5051752;28;20188;-70
2023/05/06 04:46:26;;;;;;;37.03;9.70;;;;;;;;;;5039423;28;20259;-70
2023/05/06 04:48:51;;;;;;;35.95;9.80;;;;;;;;;;5046084;28;20212;-70
2023/05/06 04:51:17;;;;;;;64.18;10.13;;;;;;;;;;5049954;28;20226;-70
2023/05/06 04:53:42;;;;;;;71.85;10.98;;;;;;;;;;5042733;28;20552;-70
2023/05/06 04:56:08;;;;;;;41.22;9.90;;;;;;;;;;5051067;28;20361;-72
2023/05/06 04:58:33;;;;;;;60.47;11.40;;;;;;;;;;5048978;28;20189;-70
2023/05/06 05:01:04;;;;;;;62.17;12.40;;;;;;;;;;5050613;28;20213;-70
2023/05/06 05:03:30;;;;;;;40.50;12.55;;;;;;;;;;5040392;28;20181;-70
2023/05/06 05:05:56;;;;;;;38.38;12.88;;;;;;;;;;5041185;28;20190;-70
2023/05/06 05:08:21;;;;;;;22.02;12.93;;;;;;;;;;5045711;28;20190;-70
2023/05/06 05:10:47;;;;;;;37.53;13.65;;;;;;;;;;5047770;28;20192;-72
2023/05/06 05:13:13;;;;;;;38.05;13.40;;;;;;;;;;5051308;28;20280;-71
2023/05/06 05:15:38;;;;;;;28.63;12.32;;;;;;;;;;5042472;28;20304;-70
2023/05/06 05:18:04;;;;;;;35.53;12.85;;;;;;;;;;5035158;28;20225;-70
2023/05/06 05:20:30;;;;;;;34.38;12.32;;;;;;;;;;5043562;28;20585;-70
2023/05/06 05:22:55;;;;;;;21.95;12.75;;;;;;;;;;5034337;28;20217;-70
2023/05/06 05:25:20;;;;;;;28.05;13.57;;;;;;;;;;5048304;28;20199;-70
2023/05/06 05:27:46;;;;;;;37.20;15.40;;;;;;;;;;5030644;28;20292;-70
2023/05/06 05:30:12;;;;;;;32.22;15.18;;;;;;;;;;5048544;28;20558;-71
2023/05/06 05:32:37;;;;;;;28.65;15.10;;;;;;;;;;5048130;28;20720;-70
2023/05/06 05:35:03;;;;;;;34.22;15.77;;;;;;;;;;5041554;28;20186;-70
2023/05/06 05:37:28;;;;;;;33.28;16.73;;;;;;;;;;5050598;28;20273;-70
2023/05/06 05:39:54;;;;;;;31.73;16.58;;;;;;;;;;5048385;28;20578;-70
2023/05/06 05:42:20;;;;;;;35.90;17.00;;;;;;;;;;5050269;28;20240;-70
2023/05/06 05:44:45;;;;;;;32.90;17.95;;;;;;;;;;5043725;28;20186;-70
2023/05/06 05:47:11;;;;;;;59.33;19.55;;;;;;;;;;5030241;28;20234;-70
2023/05/06 05:49:36;;;;;;;31.48;19.27;;;;;;;;;;5044033;28;20186;-70
2023/05/06 05:52:02;;;;;;;38.45;21.30;;;;;;;;;;5050250;28;20697;-70
2023/05/06 05:54:27;;;;;;;36.13;20.45;;;;;;;;;;5040816;28;20196;-70
2023/05/06 05:56:53;;;;;;;33.65;18.88;;;;;;;;;;5049029;28;20197;-69
2023/05/06 05:59:18;;;;;;;35.88;20.52;;;;;;;;;;5046397;28;20185;-69
2023/05/06 06:01:44;;;;;;;45.40;22.30;;;;;;;;;;5035251;28;20206;-69
2023/05/06 06:04:09;;;;;;;42.10;22.00;;;;;;;;;;5046686;28;20280;-70
2023/05/06 06:06:35;;;;;;;42.60;22.40;;;;;;;;;;5048411;28;20185;-69
2023/05/06 06:09:00;;;;;;;46.83;23.08;;;;;;;;;;5042664;28;20182;-69
2023/05/06 06:11:25;;;;;;;39.17;22.75;;;;;;;;;;5036306;28;20182;-69
2023/05/06 06:13:51;;;;;;;40.97;23.48;;;;;;;;;;5038045;28;20190;-70
2023/05/06 06:16:16;;;;;;;40.33;22.02;;;;;;;;;;5048206;28;20292;-69
2023/05/06 06:18:42;;;;;;;36.58;21.67;;;;;;;;;;5042326;28;20197;-70
2023/05/06 06:21:07;;;;;;;39.83;23.15;;;;;;;;;;5039907;28;20205;-69
2023/05/06 06:23:33;;;;;;;41.60;23.38;;;;;;;;;;5043100;28;20265;-69
2023/05/06 06:25:58;;;;;;;39.70;22.70;;;;;;;;;;5048942;28;20185;-69
2023/05/06 06:28:23;;;;;;;42.38;24.75;;;;;;;;;;5047269;28;20189;-70
2023/05/06 06:30:49;;;;;;;40.47;24.02;;;;;;;;;;5044512;28;20211;-70
2023/05/06 06:33:14;;;;;;;41.72;25.17;;;;;;;;;;5048832;28;20604;-70
2023/05/06 06:35:39;;;;;;;45.83;26.73;;;;;;;;;;5047834;28;20202;-70
2023/05/06 06:38:05;;;;;;;49.00;27.45;;;;;;;;;;5044951;28;20214;-70
2023/05/06 06:40:30;;;;;;;48.75;27.30;;;;;;;;;;5042577;28;20193;-70
2023/05/06 06:42:56;;;;;;;40.22;25.02;;;;;;;;;;5047987;28;20185;-69
2023/05/06 06:45:22;;;;;;;47.10;27.48;;;;;;;;;;5051204;28;20232;-71
2023/05/06 06:47:47;;;;;;;48.33;28.02;;;;;;;;;;5035815;28;20378;-69
2023/05/06 06:50:13;;;;;;;48.13;28.33;;;;;;;;;;5031669;28;20681;-69
2023/05/06 06:52:38;;;;;;;50.95;29.90;;;;;;;;;;5040284;28;20268;-69
2023/05/06 06:55:04;;;;;;;40.50;24.90;;;;;;;;;;5047543;28;20610;-68
2023/05/06 06:57:30;;;;;;;48.50;28.75;;;;;;;;;;5038807;28;20194;-70
2023/05/06 06:59:55;;;;;;;49.20;28.73;;;;;;;;;;5033904;28;20197;-69
2023/05/06 07:02:21;;;;;;;49.15;29.65;;;;;;;;;;5044849;28;20197;-69
2023/05/06 07:04:47;;;;;;;51.78;29.30;;;;;;;;;;5040783;28;20224;-69
2023/05/06 07:07:13;;;;;;;55.15;32.22;;;;;;;;;;5028499;28;20186;-69
2023/05/06 07:09:38;;;;;;;51.97;29.75;;;;;;;;;;5044090;28;20613;-69
2023/05/06 07:12:10;;;;;;;49.42;30.45;;;;;;;;;;5035074;28;20170;-74
2023/05/06 07:14:36;;;;;;;50.67;30.58;;;;;;;;;;5037123;28;20296;-68
2023/05/06 07:17:01;;;;;;;51.22;31.77;;;;;;;;;;5048098;28;21015;-68
2023/05/06 07:19:27;;;;;;;49.90;29.88;;;;;;;;;;5029281;28;20197;-69
2023/05/06 07:21:53;;;;;;;53.75;31.88;;;;;;;;;;5034897;28;20622;-69
2023/05/06 07:24:18;;;;;;;50.70;29.63;;;;;;;;;;5041881;28;20193;-68
2023/05/06 07:26:44;;;;;;;49.90;29.40;;;;;;;;;;5047721;28;20514;-67
2023/05/06 07:29:09;;;;;;;49.30;30.13;;;;;;;;;;5033713;28;20209;-68
2023/05/06 07:31:35;;;;;;;50.88;29.55;;;;;;;;;;5038248;28;20190;-68
2023/05/06 07:34:00;;;;;;;50.17;29.42;;;;;;;;;;5040692;28;20189;-69
2023/05/06 07:36:26;;;;;;;46.92;28.88;;;;;;;;;;5047698;28;20447;-68
2023/05/06 07:38:52;;;;;;;42.92;26.45;;;;;;;;;;5047224;28;20300;-68
2023/05/06 07:41:18;;;;;;;43.63;26.58;;;;;;;;;;5044802;28;20193;-67
2023/05/06 07:43:43;;;;;;;43.85;27.50;;;;;;;;;;5049030;28;20657;-68
2023/05/06 07:46:09;;;;;;;40.90;24.67;;;;;;;;;;5046537;28;20221;-67
2023/05/06 07:48:34;;;;;;;36.60;23.52;;;;;;;;;;5047643;28;20197;-68
2023/05/06 07:51:00;;;;;;;40.40;24.17;;;;;;;;;;5047632;28;20228;-68
2023/05/06 07:53:25;;;;;;;35.55;22.58;;;;;;;;;;5042016;28;20224;-69
2023/05/06 07:55:57;;;;;;;36.95;23.05;;;;;;;;;;5038326;28;20217;-68
2023/05/06 07:58:22;;;;;;;34.58;22.67;;;;;;;;;;5045163;28;20224;-68
2023/05/06 08:00:48;;;;;;;38.42;24.10;;;;;;;;;;5043704;28;20850;-68
2023/05/06 08:03:15;;;;;;;39.60;25.65;;;;;;;;;;5040771;28;20197;-68
2023/05/06 08:05:40;;;;;;;40.97;24.48;;;;;;;;;;5033228;28;20190;-68
2023/05/06 08:08:06;;;;;;;34.30;22.75;;;;;;;;;;5028299;28;20217;-69
2023/05/06 08:10:31;;;;;;;39.28;24.08;;;;;;;;;;5028148;28;20701;-68
2023/05/06 08:12:56;;;;;;;39.75;23.38;;;;;;;;;;5041291;28;20193;-68
2023/05/06 08:15:22;;;;;;;35.45;23.23;;;;;;;;;;5043800;28;20574;-68
2023/05/06 08:17:47;;;;;;;41.58;24.13;;;;;;;;;;5038894;28;20197;-68
2023/05/06 08:20:13;;;;;;;39.03;23.35;;;;;;;;;;5045873;28;20837;-67
2023/05/06 08:22:38;;;;;;;35.58;22.65;;;;;;;;;;5044951;28;20375;-68
2023/05/06 08:25:04;;;;;;;37.17;23.58;;;;;;;;;;5033608;28;20268;-68
2023/05/06 08:27:29;;;;;;;38.38;22.83;;;;;;;;;;5054397;28;20272;-69
2023/05/06 08:29:55;;;;;;;35.78;23.05;;;;;;;;;;5051177;28;20185;-69
2023/05/06 08:32:20;;;;;;;40.33;24.85;;;;;;;;;;5049190;28;20186;-69
2023/05/06 08:34:46;;;;;;;35.20;23.20;;;;;;;;;;5039661;28;20598;-70
2023/05/06 08:37:11;;;;;;;33.63;21.20;;;;;;;;;;5050382;28;20224;-69
2023/05/06 08:39:36;;;;;;;38.72;23.60;;;;;;;;;;5034335;28;20475;-69
2023/05/06 08:42:02;;;;;;;34.70;23.10;;;;;;;;;;5039913;28;20214;-70
2023/05/06 08:44:28;;;;;;;39.08;24.15;;;;;;;;;;5041086;28;20188;-70
2023/05/06 08:46:54;;;;;;;38.53;22.92;;;;;;;;;;5039207;28;20225;-70
2023/05/06 08:49:20;;;;;;;36.28;22.90;;;;;;;;;;5031397;28;20202;-70
2023/05/06 08:51:48;;;;;;;35.85;22.88;;;;;;;;;;5044878;28;20198;-70
2023/05/06 08:54:14;;;;;;;37.08;23.23;;;;;;;;;;5039850;28;20190;-69
2023/05/06 08:56:44;;;;;;;33.30;21.27;;;;;;;;;;5047200;28;20205;-69
2023/05/06 08:59:09;;;;;;;36.03;23.08;;;;;;;;;;5046779;28;20543;-70
2023/05/06 09:01:35;;;;;;;31.38;20.77;;;;;;;;;;5046997;28;20216;-69
2023/05/06 09:04:02;;;;;;;34.65;22.20;;;;;;;;;;5043116;28;20190;-70
2023/05/06 09:06:28;;;;;;;30.95;20.17;;;;;;;;;;5042122;28;20234;-70
2023/05/06 09:08:54;;;;;;;35.20;22.55;;;;;;;;;;5033011;28;20210;-69
2023/05/06 09:11:28;;;;;;;29.55;20.17;;;;;;;;;;5040883;28;20193;-68
2023/05/06 09:14:09;;;;;;;23.55;16.95;;;;;;;;;;5036871;28;20209;-68
2023/05/06 09:16:35;;;;;;;25.13;17.20;;;;;;;;;;5049565;28;20315;-67
2023/05/06 09:19:01;;;;;;;23.42;17.25;;;;;;;;;;5036322;28;20598;-68
2023/05/06 09:21:38;;;;;;;27.02;16.63;;;;;;;;;;5050669;28;20257;-68
2023/05/06 09:24:05;;;;;;;24.35;15.75;;;;;;;;;;5056646;28;20671;-68
2023/05/06 09:26:32;;;;;;;24.83;17.60;;;;;;;;;;5050694;28;20243;-68
2023/05/06 09:28:58;;;;;;;22.63;16.15;;;;;;;;;;5048496;28;20603;-70
2023/05/06 09:31:25;;;;;;;22.80;16.15;;;;;;;;;;5050550;28;20194;-69
2023/05/06 09:33:55;;;;;;;22.65;15.60;;;;;;;;;;5036402;28;20708;-68
2023/05/06 09:36:22;;;;;;;22.08;14.77;;;;;;;;;;5050321;28;20209;-67
2023/05/06 09:38:48;;;;;;;23.15;15.05;;;;;;;;;;5041089;28;20309;-67
2023/05/06 09:41:14;;;;;;;24.63;17.40;;;;;;;;;;5045009;28;20618;-68
2023/05/06 09:43:43;;;;;;;27.48;17.08;;;;;;;;;;5042564;28;20732;-68
2023/05/06 09:46:11;;;;;;;27.25;16.00;;;;;;;;;;5044003;28;20236;-68
2023/05/06 09:48:37;;;;;;;22.52;17.08;;;;;;;;;;5030568;28;20227;-67
2023/05/06 09:51:05;;;;;;;22.25;16.33;;;;;;;;;;5039939;28;20263;-68
2023/05/06 09:53:33;;;;;;;24.40;15.95;;;;;;;;;;5054281;28;20227;-67
2023/05/06 09:56:00;;;;;;;25.30;17.20;;;;;;;;;;5057226;28;20597;-68
2023/05/06 09:58:26;;;;;;;21.83;15.15;;;;;;;;;;5049682;28;20617;-68
2023/05/06 10:00:53;;;;;;;24.67;15.88;;;;;;;;;;5043340;28;20577;-68
2023/05/06 10:03:19;;;;;;;22.50;15.10;;;;;;;;;;5045263;28;20197;-68
2023/05/06 10:05:45;;;;;;;23.27;16.17;;;;;;;;;;5045037;28;20634;-68
2023/05/06 10:08:17;;;;;;;20.10;14.90;;;;;;;;;;5036073;28;20296;-68
2023/05/06 10:10:44;;;;;;;24.92;15.93;;;;;;;;;;5038844;28;20247;-68
2023/05/06 10:13:09;;;;;;;24.38;15.32;;;;;;;;;;5037302;28;20618;-68
2023/05/06 10:15:37;;;;;;;26.42;15.95;;;;;;;;;;5047654;28;20403;-68
2023/05/06 10:18:04;;;;;;;19.02;12.85;;;;;;;;;;5028975;28;20210;-65
2023/05/06 10:20:31;;;;;;;14.98;11.05;;;;;;;;;;5055169;28;20186;-66
2023/05/06 10:23:09;;;;;;;17.02;12.52;;;;;;;;;;5039514;28;20183;-67
2023/05/06 10:25:38;;;;;;;24.08;15.10;;;;;;;;;;5042643;28;20187;-66
2023/05/06 10:28:05;;;;;;;22.08;16.42;;;;;;;;;;5040352;28;20189;-66
2023/05/06 10:30:32;;;;;;;25.13;16.85;;;;;;;;;;5044240;28;20190;-67
2023/05/06 10:33:02;;;;;;;26.38;17.35;;;;;;;;;;5043749;28;20525;-66
2023/05/06 10:35:43;;;;;;;23.15;13.52;;;;;;;;;;5049140;28;20657;-66
2023/05/06 10:38:25;;;;;;;18.00;11.65;;;;;;;;;;5045182;28;20212;-66
2023/05/06 10:40:51;;;;;;;15.10;9.77;;;;;;;;;;5042345;28;20189;-66
2023/05/06 10:43:22;;;;;;;14.95;9.23;;;;;;;;;;5044244;28;20415;-66
2023/05/06 10:45:59;;;;;;;15.55;11.38;;;;;;;;;;5049222;28;20271;-66
2023/05/06 10:48:25;;;;;;;16.02;11.63;;;;;;;;;;5045513;28;20185;-65
2023/05/06 10:50:50;;;;;;;17.42;11.30;;;;;;;;;;5050881;28;20241;-68
2023/05/06 10:53:15;;;;;;;15.35;11.80;;;;;;;;;;5046408;28;20238;-67
2023/05/06 10:55:41;;;;;;;12.73;7.97;;;;;;;;;;5049276;28;20723;-67
2023/05/06 10:58:15;;;;;;;12.98;9.52;;;;;;;;;;5034020;28;20191;-67
2023/05/06 11:00:40;;;;;;;17.10;12.35;;;;;;;;;;5044552;28;20307;-66
2023/05/06 11:03:10;;;;;;;18.60;11.95;;;;;;;;;;5038371;28;20617;-66
2023/05/06 11:05:47;;;;;;;19.40;11.60;;;;;;;;;;5040665;28;20186;-67
2023/05/06 11:08:14;;;;;;;13.52;10.48;;;;;;;;;;5046404;28;20664;-67
2023/05/06 11:10:39;;;;;;;13.85;9.70;;;;;;;;;;5034489;28;20186;-66
2023/05/06 11:13:21;;;;;;;13.68;10.25;;;;;;;;;;5047388;28;20254;-66
2023/05/06 11:15:50;;;;;;;14.27;9.77;;;;;;;;;;5033111;28;20282;-66
2023/05/06 11:18:32;;;;;;;13.25;10.00;;;;;;;;;;5044344;28;20185;-66
2023/05/06 11:21:01;;;;;;;12.43;8.88;;;;;;;;;;5035459;28;20189;-66
2023/05/06 11:23:42;;;;;;;11.95;8.88;;;;;;;;;;5041814;28;20259;-67
2023/05/06 11:26:08;;;;;;;15.80;11.77;;;;;;;;;;5036000;28;20603;-67
2023/05/06 11:28:34;;;;;;;20.10;13.40;;;;;;;;;;5047765;28;20189;-68
2023/05/06 11:31:00;;;;;;;18.40;13.90;;;;;;;;;;5027783;28;20193;-68
2023/05/06 11:33:32;;;;;;;17.77;12.98;;;;;;;;;;5038251;28;20186;-67
2023/05/06 11:36:02;;;;;;;16.17;12.60;;;;;;;;;;5046431;28;20213;-68
2023/05/06 11:38:51;;;;;;;15.77;13.32;;;;;;;;;;5048792;28;20551;-68
2023/05/06 11:41:18;;;;;;;13.98;10.32;;;;;;;;;;5033888;28;20225;-67
2023/05/06 11:43:51;;;;;;;14.25;11.40;;;;;;;;;;5039676;28;20199;-67
2023/05/06 11:46:18;;;;;;;14.88;11.35;;;;;;;;;;5039553;28;20243;-68
2023/05/06 11:48:43;;;;;;;16.17;11.68;;;;;;;;;;5040437;28;20296;-68
2023/05/06 11:51:09;;;;;;;14.50;11.25;;;;;;;;;;5041538;28;20563;-68
2023/05/06 11:53:34;;;;;;;13.25;10.13;;;;;;;;;;5040393;28;20194;-68
2023/05/06 11:56:00;;;;;;;10.90;8.63;;;;;;;;;;5027741;28;20210;-67
2023/05/06 11:58:27;;;;;;;7.22;4.63;;;;;;;;;;5038317;28;20557;-67
2023/05/06 12:00:55;;;;;;;9.10;6.90;;;;;;;;;;5037523;28;20274;-66
2023/05/06 12:03:21;;;;;;;7.88;5.60;;;;;;;;;;5043334;28;20247;-68
2023/05/06 12:05:48;;;;;;;7.78;6.05;;;;;;;;;;5039879;28;20186;-67
2023/05/06 12:08:34;;;;;;;10.15;6.72;;;;;;;;;;5042657;28;20197;-66
2023/05/06 12:11:02;;;;;;;9.60;5.53;;;;;;;;;;5037714;28;20524;-67
2023/05/06 12:13:28;;;;;;;8.88;6.55;;;;;;;;;;5042202;28;20190;-67
2023/05/06 12:15:54;;;;;;;10.32;7.65;;;;;;;;;;5047784;28;20228;-67
2023/05/06 12:18:20;;;;;;;10.73;7.78;;;;;;;;;;5040843;28;20269;-67
2023/05/06 12:20:46;;;;;;;11.35;7.63;;;;;;;;;;5046887;28;20675;-67
2023/05/06 12:23:14;;;;;;;13.00;8.30;;;;;;;;;;5036473;28;20273;-67
2023/05/06 12:25:40;;;;;;;11.27;8.30;;;;;;;;;;5026742;28;20181;-67
2023/05/06 12:28:17;;;;;;;11.00;8.00;;;;;;;;;;5041059;28;20276;-67
2023/05/06 12:30:43;;;;;;;11.10;7.82;;;;;;;;;;5029617;28;20189;-67
2023/05/06 12:33:10;;;;;;;12.70;9.10;;;;;;;;;;5037364;28;20193;-69
2023/05/06 12:35:35;;;;;;;12.75;8.35;;;;;;;;;;5045642;28;20296;-67
2023/05/06 12:38:12;;;;;;;9.32;6.15;;;;;;;;;;5035815;28;20512;-67
2023/05/06 12:40:39;;;;;;;7.05;5.40;;;;;;;;;;5039226;28;20331;-67
2023/05/06 12:43:04;;;;;;;6.55;4.75;;;;;;;;;;5043379;28;20236;-67
2023/05/06 12:45:30;;;;;;;6.95;5.50;;;;;;;;;;5041889;28;20225;-68
2023/05/06 12:47:57;;;;;;;8.70;5.57;;;;;;;;;;5042978;28;20501;-67
2023/05/06 12:50:39;;;;;;;7.75;5.15;;;;;;;;;;5045043;28;20194;-68
2023/05/06 12:53:05;;;;;;;7.78;5.15;;;;;;;;;;5046791;28;20189;-69
2023/05/06 12:55:32;;;;;;;8.20;5.60;;;;;;;;;;5041646;28;20221;-68
2023/05/06 12:57:59;;;;;;;7.05;5.22;;;;;;;;;;5047971;28;20202;-67
2023/05/06 13:00:24;;;;;;;5.97;4.32;;;;;;;;;;5040714;28;20197;-67
2023/05/06 13:02:49;;;;;;;7.20;3.88;;;;;;;;;;5030543;28;20197;-67
2023/05/06 13:05:15;;;;;;;5.53;3.50;;;;;;;;;;5046803;28;20194;-67
2023/05/06 13:07:40;;;;;;;6.68;3.25;;;;;;;;;;5050216;28;20242;-68
2023/05/06 13:10:06;;;;;;;19.48;15.70;;;;;;;;;;5052224;28;20251;-69
2023/05/06 13:12:32;;;;;;;23.42;17.90;;;;;;;;;;5050678;28;20280;-70
2023/05/06 13:14:58;;;;;;;22.73;18.23;;;;;;;;;;5051195;28;20268;-69
2023/05/06 13:17:25;;;;;;;22.90;18.40;;;;;;;;;;5048093;28;20699;-70
2023/05/06 13:19:51;;;;;;;25.95;18.15;;;;;;;;;;5046476;28;20247;-71
2023/05/06 13:22:17;;;;;;;25.80;19.42;;;;;;;;;;5049587;28;20190;-71
2023/05/06 13:24:42;;;;;;;22.65;17.65;;;;;;;;;;5049982;28;20378;-70
2023/05/06 13:27:07;;;;;;;25.55;19.58;;;;;;;;;;5048127;28;20550;-70
2023/05/06 13:29:33;;;;;;;27.17;21.67;;;;;;;;;;5041423;28;20201;-71
2023/05/06 13:31:59;;;;;;;34.47;23.35;;;;;;;;;;5038222;28;20617;-72
2023/05/06 13:34:25;;;;;;;26.90;21.73;;;;;;;;;;5034295;28;20222;-71
2023/05/06 13:36:53;;;;;;;27.45;21.83;;;;;;;;;;5048391;28;20294;-69
2023/05/06 13:39:19;;;;;;;29.55;21.30;;;;;;;;;;5047510;28;20194;-70
2023/05/06 13:41:48;;;;;;;28.42;22.13;;;;;;;;;;5049962;28;20216;-71
2023/05/06 13:44:15;;;;;;;31.75;24.63;;;;;;;;;;5051771;28;20693;-69
2023/05/06 13:46:40;;;;;;;30.10;23.42;;;;;;;;;;5041388;28;20233;-70
2023/05/06 13:49:06;;;;;;;26.67;21.10;;;;;;;;;;5047910;28;20247;-72
2023/05/06 13:51:33;;;;;;;29.23;22.15;;;;;;;;;;5032913;28;20292;-70
2023/05/06 13:53:59;;;;;;;27.50;20.30;;;;;;;;;;5037108;28;20182;-70
2023/05/06 13:56:25;;;;;;;24.40;19.75;;;;;;;;;;5029877;28;20257;-70
2023/05/06 13:58:52;;;;;;;24.52;19.80;;;;;;;;;;5042957;28;20217;-70
2023/05/06 14:01:20;;;;;;;25.85;19.52;;;;;;;;;;5041759;28;20202;-70
2023/05/06 14:03:46;;;;;;;26.38;19.00;;;;;;;;;;5044333;28;20223;-70
2023/05/06 14:06:11;;;;;;;22.52;18.17;;;;;;;;;;5056146;28;20296;-69
2023/05/06 14:08:37;;;;;;;27.17;18.60;;;;;;;;;;5044143;28;20193;-69
2023/05/06 14:11:02;;;;;;;23.92;19.30;;;;;;;;;;5040382;28;20186;-70
2023/05/06 14:13:30;;;;;;;25.55;20.50;;;;;;;;;;5039755;28;20269;-69
2023/05/06 14:15:56;;;;;;;26.90;20.45;;;;;;;;;;5039439;28;20221;-69
2023/05/06 14:18:21;;;;;;;24.38;18.55;;;;;;;;;;5044610;28;20177;-69
2023/05/06 14:20:46;;;;;;;23.77;18.55;;;;;;;;;;5034388;28;20750;-69
2023/05/06 14:23:12;;;;;;;24.17;19.00;;;;;;;;;;5045715;28;20268;-69